Time;durP1;ratioP1;P1;durP2;ratioP2;P2;SDS_P1;SDS_P2;PMS_P1;PMS_P2;Temp;Humidity;BMP_temperature;BMP_pressure;BME280_temperature;BME280_humidity;BME280_pressure;Samples;Min_cycle;Max_cycle;Signal;HPM_P1;HPM_P2
2022/06/10 00:01:01;;;;;;;8.02;4.60;;;;;;;20.18;66.41;94449.59;4948106;29;20059;-83
2022/06/10 00:03:27;;;;;;;13.00;4.72;;;;;;;18.06;65.77;94121.72;4935782;29;20924;-83
2022/06/10 00:05:55;;;;;;;11.27;4.57;;;;;;;19.68;66.10;94370.47;4917748;29;20530;-83
2022/06/10 00:08:30;;;;;;;8.27;4.90;;;;;;;20.15;66.12;94450.28;4951507;29;20165;-83
2022/06/10 00:10:56;;;;;;;15.32;4.85;;;;;;;19.36;66.12;94326.66;4949059;29;20042;-83
2022/06/10 00:13:24;;;;;;;7.22;4.35;;;;;;;20.14;66.27;94438.00;4953079;29;20046;-84
2022/06/10 00:15:54;;;;;;;8.73;5.03;;;;;;;19.56;66.39;94371.34;4934619;28;20039;-83
2022/06/10 00:18:21;;;;;;;8.80;4.63;;;;;;;19.26;66.19;94313.75;4934616;29;20039;-83
2022/06/10 00:20:46;;;;;;;12.70;4.50;;;;;;;19.87;65.94;94410.06;4934509;29;20101;-83
2022/06/10 00:23:12;;;;;;;7.63;5.03;;;;;;;18.93;68.33;94392.00;4934973;29;20035;-83
2022/06/10 00:25:38;;;;;;;10.68;5.40;;;;;;;18.81;70.04;94429.69;4924024;29;20470;-84
2022/06/10 00:28:06;;;;;;;11.93;5.53;;;;;;;17.95;69.54;94252.09;4948592;29;20035;-83
2022/06/10 00:30:32;;;;;;;10.98;5.75;;;;;;;18.65;68.72;94346.41;4933749;28;20043;-83
2022/06/10 00:32:59;;;;;;;8.40;5.25;;;;;;;18.76;68.60;94339.41;4948071;29;20050;-84
2022/06/10 00:35:26;;;;;;;10.98;5.10;;;;;;;19.61;68.37;94445.59;4951346;29;20046;-83
2022/06/10 00:37:52;;;;;;;10.38;5.53;;;;;;;19.76;68.13;94439.41;4934849;28;20538;-83
2022/06/10 00:40:25;;;;;;;8.60;4.90;;;;;;;19.25;68.20;94364.03;4951317;29;20082;-84
2022/06/10 00:42:50;;;;;;;13.38;5.30;;;;;;;19.39;67.70;94363.59;4907081;29;20498;-84
2022/06/10 00:45:47;;;;;;;14.93;5.47;;;;;;;19.91;67.38;94435.16;4948218;29;20121;-83
2022/06/10 00:48:18;;;;;;;11.93;5.75;;;;;;;19.32;67.71;94357.28;4934773;29;20561;-83
2022/06/10 00:50:44;;;;;;;14.73;5.82;;;;;;;19.46;67.43;94371.03;4941749;29;20378;-84
2022/06/10 00:53:14;;;;;;;7.97;5.90;;;;;;;19.43;66.94;94351.03;4948682;29;20078;-83
2022/06/10 00:55:40;;;;;;;7.53;5.65;;;;;;;19.38;67.31;94358.56;4951258;29;20047;-83
2022/06/10 00:58:13;;;;;;;6.57;5.05;;;;;;;20.03;67.11;94443.13;4920866;29;20075;-83
2022/06/10 01:00:38;;;;;;;6.03;5.28;;;;;;;19.10;68.31;94327.19;4936929;29;20047;-83
2022/06/10 01:03:05;;;;;;;10.13;4.82;;;;;;;19.98;68.71;94438.03;4934060;29;20043;-83
2022/06/10 01:05:30;;;;;;;11.00;4.97;;;;;;;18.98;68.93;94305.81;4930044;29;20127;-84
2022/06/10 01:08:04;;;;;;;9.75;5.22;;;;;;;19.32;68.80;94335.75;4933511;29;20102;-83
2022/06/10 01:10:39;;;;;;;9.50;4.88;;;;;;;19.47;68.60;94368.03;4925905;29;20463;-83
2022/06/10 01:13:48;;;;;;;6.55;4.70;;;;;;;19.80;68.37;94413.38;4924955;29;20038;-83
2022/06/10 01:16:44;;;;;;;10.55;4.60;;;;;;;20.02;67.75;94433.47;4905966;29;20114;-84
2022/06/10 01:19:47;;;;;;;7.95;4.85;;;;;;;19.87;68.38;94431.59;4947677;29;20035;-83
2022/06/10 01:22:23;;;;;;;8.95;4.38;;;;;;;19.94;67.85;94432.53;4951561;29;20042;-84
2022/06/10 01:25:10;;;;;;;6.22;4.15;;;;;;;19.88;68.00;94430.47;4933605;29;20027;-83
2022/06/10 01:28:17;;;;;;;5.28;3.40;;;;;;;19.50;67.84;94380.03;4933323;29;20039;-83
2022/06/10 01:31:09;;;;;;;4.88;3.95;;;;;;;19.91;67.82;94430.53;4922654;29;20039;-83
2022/06/10 01:33:53;;;;;;;5.32;4.00;;;;;;;19.94;68.30;94434.44;4951755;29;20027;-83
2022/06/10 01:37:07;;;;;;;9.90;4.55;;;;;;;19.78;68.80;94415.66;4922312;29;20095;-82
2022/06/10 01:39:54;;;;;;;8.95;5.18;;;;;;;19.93;69.49;94435.56;4874692;29;20054;-83
2022/06/10 01:42:45;;;;;;;5.95;4.13;;;;;;;19.91;70.01;94441.31;4890373;29;20151;-82
2022/06/10 01:45:33;;;;;;;8.13;5.10;;;;;;;19.90;70.90;94436.28;4919665;29;20054;-82
2022/06/10 01:48:04;;;;;;;7.30;4.90;;;;;;;19.64;69.89;94407.25;4949303;28;20043;-82
2022/06/10 01:50:34;;;;;;;;;;;;;;;19.84;71.02;94437.66;4950439;29;20031;-82
2022/06/10 01:53:10;;;;;;;11.38;5.25;;;;;;;19.12;71.23;94326.84;4950501;29;20408;-82
2022/06/10 01:55:45;;;;;;;10.60;5.63;;;;;;;19.86;71.06;94435.41;4950176;29;20031;-82
2022/06/10 01:58:23;;;;;;;9.52;4.90;;;;;;;19.14;70.91;94344.22;4927932;29;20416;-82
2022/06/10 02:00:54;;;;;;;13.07;5.40;;;;;;;19.78;72.04;94439.06;4939522;29;20058;-82
2022/06/10 02:03:28;;;;;;;9.70;4.90;;;;;;;19.81;71.41;94444.56;4933467;29;20453;-82
2022/06/10 02:06:08;;;;;;;10.00;5.28;;;;;;;19.68;71.33;94437.72;4932352;28;20031;-82
2022/06/10 02:08:49;;;;;;;14.13;5.63;;;;;;;19.54;71.74;94415.84;4931231;29;20129;-82
2022/06/10 02:11:18;;;;;;;6.63;5.28;;;;;;;19.70;72.13;94448.09;4932304;29;20036;-82
2022/06/10 02:14:02;;;;;;;6.82;5.85;;;;;;;19.66;73.02;94448.03;4947200;29;20036;-82
2022/06/10 02:16:33;;;;;;;8.35;5.78;;;;;;;19.32;73.15;94414.50;4920342;29;20035;-82
2022/06/10 02:19:35;;;;;;;10.13;5.65;;;;;;;19.63;73.01;94446.03;4932341;29;20023;-82
2022/06/10 02:22:06;;;;;;;;;;;;;;;19.56;72.72;94448.53;4932917;28;20039;-82
2022/06/10 02:24:40;;;;;;;8.43;5.70;;;;;;;18.38;72.97;94266.66;4950567;29;20306;-82
2022/06/10 02:27:12;;;;;;;6.78;6.07;;;;;;;18.47;72.87;94284.16;4931936;29;20142;-82
2022/06/10 02:29:44;;;;;;;11.88;5.55;;;;;;;18.71;73.02;94330.81;4947646;29;20491;-83
2022/06/10 02:32:10;;;;;;;10.98;6.05;;;;;;;19.51;72.53;94449.59;4932559;29;20410;-82
2022/06/10 02:34:36;;;;;;;9.38;5.93;;;;;;;19.51;73.25;94460.34;4949756;29;20027;-82
2022/06/10 02:37:14;;;;;;;9.75;5.80;;;;;;;19.40;72.96;94440.44;4949675;29;20114;-82
2022/06/10 02:39:46;;;;;;;8.23;5.15;;;;;;;18.83;73.06;94379.91;4931994;29;20031;-82
2022/06/10 02:42:20;;;;;;;10.77;5.65;;;;;;;19.45;73.49;94455.56;4949520;28;20414;-82
2022/06/10 02:45:05;;;;;;;10.70;6.78;;;;;;;19.41;73.12;94462.75;4932783;29;20054;-82
2022/06/10 02:47:40;;;;;;;12.20;5.80;;;;;;;19.37;73.45;94468.03;4949825;29;20031;-82
2022/06/10 02:50:07;;;;;;;14.88;6.60;;;;;;;18.66;74.04;94364.09;4913393;29;20044;-82
2022/06/10 02:52:34;;;;;;;11.23;6.22;;;;;;;19.38;74.51;94464.19;4916774;29;20062;-82
2022/06/10 02:55:00;;;;;;;6.78;5.88;;;;;;;19.35;74.56;94462.22;4951978;28;20054;-82
2022/06/10 03:03:10;;;;;;;18.63;6.57;;;;;;;19.32;75.03;94475.56;4948133;29;20123;-82
2022/06/10 03:05:42;;;;;;;12.15;6.55;;;;;;;18.94;75.64;94428.50;4919198;29;20036;-82
2022/06/10 03:08:07;;;;;;;;;;;;;;;19.25;76.21;94470.78;4952310;29;20039;-82
2022/06/10 03:10:57;;;;;;;14.80;6.85;;;;;;;19.35;75.62;94464.13;4953187;29;20420;-82
2022/06/10 03:13:55;;;;;;;9.32;6.10;;;;;;;19.25;75.75;94470.78;4945944;29;20042;-82
2022/06/10 03:16:50;;;;;;;17.73;6.97;;;;;;;18.91;75.43;94421.16;4945986;29;20545;-83
2022/06/10 03:19:35;;;;;;;13.52;7.82;;;;;;;19.25;76.71;94462.72;4935396;29;20039;-82
2022/06/10 03:22:28;;;;;;;10.88;6.78;;;;;;;19.22;76.65;94471.50;4948478;29;20039;-82
2022/06/10 03:25:14;;;;;;;12.35;6.80;;;;;;;19.11;76.00;94473.88;4928797;29;20117;-82
2022/06/10 03:28:00;;;;;;;12.75;6.80;;;;;;;18.14;76.12;94318.53;4941581;29;20054;-82
2022/06/10 03:30:40;;;;;;;12.90;7.32;;;;;;;19.07;76.99;94496.44;4931796;29;20035;-82
2022/06/10 03:33:23;;;;;;;11.60;6.80;;;;;;;19.08;77.15;94479.94;4920692;29;20451;-82
2022/06/10 03:35:54;;;;;;;16.73;7.78;;;;;;;18.83;77.12;94447.06;4952211;28;20126;-82
2022/06/10 03:38:19;;;;;;;11.93;7.50;;;;;;;19.03;77.21;94468.66;4952834;29;20387;-82
2022/06/10 03:40:56;;;;;;;13.98;7.70;;;;;;;19.13;77.47;94481.63;4931887;29;20098;-83
2022/06/10 03:43:24;;;;;;;16.90;8.73;;;;;;;19.06;76.82;94476.06;4947064;29;20038;-82
2022/06/10 03:45:59;;;;;;;11.63;8.60;;;;;;;18.64;77.23;94432.69;4918820;29;20028;-82
2022/06/10 03:48:27;;;;;;;12.73;8.63;;;;;;;19.06;76.79;94484.91;4928542;29;20514;-83
2022/06/10 03:50:53;;;;;;;15.57;8.20;;;;;;;18.17;76.63;94336.63;4952186;29;20047;-83
2022/06/10 03:53:22;;;;;;;13.60;7.68;;;;;;;18.36;76.72;94387.00;4951181;29;20035;-83
2022/06/10 03:55:48;;;;;;;14.48;8.35;;;;;;;19.07;76.90;94489.13;4952054;28;20048;-83
2022/06/10 03:58:14;;;;;;;10.75;7.50;;;;;;;18.69;76.61;94454.69;4952282;29;20065;-83
2022/06/10 04:00:40;;;;;;;8.07;6.75;;;;;;;18.55;76.45;94421.25;4934655;29;20123;-84
2022/06/10 04:03:06;;;;;;;9.88;7.53;;;;;;;19.07;75.78;94491.06;4933743;29;20035;-84
2022/06/10 04:05:32;;;;;;;12.00;7.22;;;;;;;19.07;76.64;94493.75;4917701;29;20028;-84
2022/06/10 04:07:58;;;;;;;15.40;7.70;;;;;;;18.26;76.70;94355.28;4937927;29;20043;-83
2022/06/10 04:10:26;;;;;;;11.55;6.68;;;;;;;18.69;77.07;94435.91;4933904;29;20037;-83
2022/06/10 04:12:52;;;;;;;12.32;5.97;;;;;;;19.16;76.64;94495.13;4945977;29;20597;-83
2022/06/10 04:15:18;;;;;;;9.32;5.90;;;;;;;19.17;76.36;94495.91;4941118;29;20126;-83
2022/06/10 04:17:46;;;;;;;13.15;6.25;;;;;;;18.80;76.29;94450.41;4926316;29;20040;-83
2022/06/10 04:20:19;;;;;;;10.82;6.28;;;;;;;18.80;76.48;94447.72;4926633;29;20039;-83
2022/06/10 04:22:44;;;;;;;11.23;6.78;;;;;;;18.58;77.01;94416.03;4954158;28;20535;-83
2022/06/10 04:25:10;;;;;;;10.52;6.35;;;;;;;17.78;76.20;94297.97;4933504;29;20126;-83
2022/06/10 04:27:36;;;;;;;10.68;6.43;;;;;;;17.19;77.10;94212.75;4921213;29;20039;-83
2022/06/10 04:30:04;;;;;;;12.65;5.93;;;;;;;17.99;76.94;94335.38;4939406;29;20552;-83
2022/06/10 04:32:29;;;;;;;9.95;7.15;;;;;;;16.93;76.76;94140.81;4939021;29;20471;-83
2022/06/10 04:34:54;;;;;;;11.63;7.03;;;;;;;18.35;77.65;94355.91;4941662;29;20031;-84
2022/06/10 04:37:25;;;;;;;9.10;6.97;;;;;;;16.53;76.79;94078.38;4957313;28;20039;-84
2022/06/10 04:39:50;;;;;;;13.60;6.78;;;;;;;16.86;77.31;94145.19;4935931;29;20059;-83
2022/06/10 04:42:16;;;;;;;10.73;7.13;;;;;;;18.82;77.10;94423.22;4934330;29;20055;-83
2022/06/10 04:44:42;;;;;;;11.98;6.82;;;;;;;18.93;76.67;94475.31;4946488;29;20466;-84
2022/06/10 04:47:08;;;;;;;10.27;7.35;;;;;;;18.68;77.29;94447.00;4919946;29;20035;-83
2022/06/10 04:49:36;;;;;;;13.10;7.30;;;;;;;18.88;77.38;94459.44;4917827;29;20038;-83
2022/06/10 04:52:03;;;;;;;11.68;7.43;;;;;;;16.87;77.13;94136.00;4939767;29;20024;-83
2022/06/10 04:54:29;;;;;;;12.25;7.28;;;;;;;17.56;77.86;94253.63;4938372;29;20107;-84
2022/06/10 04:56:54;;;;;;;9.80;7.47;;;;;;;18.46;78.48;94410.69;4939891;29;20273;-84
2022/06/10 04:59:20;;;;;;;12.90;8.23;;;;;;;16.83;77.54;94132.47;4920962;29;20035;-84
2022/06/10 05:01:45;;;;;;;13.07;8.15;;;;;;;16.59;78.08;94101.13;4941806;29;20438;-84
2022/06/10 05:04:10;;;;;;;9.20;7.05;;;;;;;18.95;77.80;94465.00;4916829;29;20362;-84
2022/06/10 05:06:36;;;;;;;9.57;7.80;;;;;;;18.74;78.16;94435.66;4918397;29;20506;-84
2022/06/10 05:09:02;;;;;;;11.90;7.88;;;;;;;19.36;78.12;94541.75;4933777;28;20479;-84
2022/06/10 05:11:27;;;;;;;9.48;7.45;;;;;;;17.15;77.34;94209.19;4934665;29;20701;-84
2022/06/10 05:13:53;;;;;;;10.38;8.82;;;;;;;16.17;77.26;94052.44;4942122;28;20028;-84
2022/06/10 05:16:19;;;;;;;13.82;8.32;;;;;;;15.37;76.93;93955.94;4928243;29;20085;-84
2022/06/10 05:18:44;;;;;;;12.75;8.48;;;;;;;15.96;76.56;94031.16;4938406;28;20031;-84
2022/06/10 05:21:10;;;;;;;16.67;8.40;;;;;;;17.64;77.10;94284.16;4924578;29;20031;-84
2022/06/10 05:23:35;;;;;;;11.15;8.63;;;;;;;17.05;77.35;94192.78;4937634;29;20142;-84
2022/06/10 05:26:01;;;;;;;11.43;9.00;;;;;;;17.76;77.63;94278.00;4931743;29;20035;-84
2022/06/10 05:28:27;;;;;;;12.05;9.30;;;;;;;18.74;77.65;94424.13;4928516;29;20043;-84
2022/06/10 05:30:53;;;;;;;11.25;8.98;;;;;;;17.01;77.71;94178.53;4915853;29;20367;-84
2022/06/10 05:33:19;;;;;;;12.15;8.45;;;;;;;17.85;78.69;94346.44;4932522;29;20135;-84
2022/06/10 05:35:45;;;;;;;17.80;8.93;;;;;;;19.20;78.31;94512.16;4913229;29;20467;-84
2022/06/10 05:38:12;;;;;;;16.20;8.63;;;;;;;19.51;77.58;94526.81;4928681;29;20040;-84
2022/06/10 05:40:38;;;;;;;12.38;7.97;;;;;;;19.44;77.48;94513.16;4914306;29;20036;-84
2022/06/10 05:43:10;;;;;;;13.27;8.30;;;;;;;19.02;76.92;94438.31;4913242;29;20156;-84
2022/06/10 05:45:35;;;;;;;16.50;8.68;;;;;;;19.46;76.95;94500.13;4911934;29;20044;-84
2022/06/10 05:48:01;;;;;;;11.27;9.18;;;;;;;18.56;77.99;94382.56;4935837;29;20420;-84
2022/06/10 05:50:34;;;;;;;13.35;9.48;;;;;;;19.71;77.42;94533.06;4926724;29;20068;-84
2022/06/10 05:53:02;;;;;;;14.88;9.85;;;;;;;18.88;77.45;94381.53;4908208;29;20047;-84
2022/06/10 05:55:31;;;;;;;14.10;9.20;;;;;;;19.39;76.68;94465.78;4930169;29;20043;-84
2022/06/10 05:57:59;;;;;;;12.90;8.70;;;;;;;19.94;76.30;94547.47;4929686;28;20664;-83
2022/06/10 06:00:28;;;;;;;15.13;10.20;;;;;;;19.39;76.67;94465.78;4914260;29;20497;-84
2022/06/10 06:02:54;;;;;;;12.82;9.35;;;;;;;19.59;76.26;94467.47;4920885;29;20074;-84
2022/06/10 06:05:24;;;;;;;16.10;8.80;;;;;;;17.30;75.88;94128.09;4913937;29;20198;-84
2022/06/10 06:07:50;;;;;;;15.05;9.50;;;;;;;19.62;75.59;94474.06;4925202;29;20471;-84
2022/06/10 06:10:20;;;;;;;21.55;10.68;;;;;;;20.16;76.41;94559.53;4932833;29;20070;-84
2022/06/10 06:12:46;;;;;;;12.88;10.15;;;;;;;18.16;76.24;94278.72;4913746;29;20035;-83
2022/06/10 06:15:13;;;;;;;21.02;9.13;;;;;;;17.35;75.36;94111.00;4912304;29;20154;-84
2022/06/10 06:17:38;;;;;;;14.90;9.15;;;;;;;18.40;75.44;94257.13;4914375;29;20047;-84
2022/06/10 06:20:05;;;;;;;9.90;8.88;;;;;;;19.39;74.82;94417.38;4912390;29;20039;-84
2022/06/10 06:22:34;;;;;;;13.65;9.55;;;;;;;20.16;74.99;94538.00;4905885;29;20094;-84
2022/06/10 06:25:00;;;;;;;12.25;8.57;;;;;;;20.24;74.60;94559.34;4932279;29;20039;-84
2022/06/10 06:27:26;;;;;;;11.57;9.00;;;;;;;18.06;74.70;94247.03;4929895;29;20042;-84
2022/06/10 06:29:52;;;;;;;12.27;9.00;;;;;;;19.82;74.70;94489.16;4915848;29;20056;-84
2022/06/10 06:32:25;;;;;;;13.70;9.73;;;;;;;19.58;74.90;94463.22;4918247;29;20359;-84
2022/06/10 06:34:50;;;;;;;13.77;9.75;;;;;;;19.78;75.31;94469.44;4914820;29;20039;-84
2022/06/10 06:37:17;;;;;;;16.30;9.98;;;;;;;19.47;75.62;94442.56;4920237;29;20070;-84
2022/06/10 06:39:43;;;;;;;13.10;10.32;;;;;;;20.04;75.00;94522.75;4913450;29;20032;-84
2022/06/10 06:42:10;;;;;;;14.50;10.02;;;;;;;20.00;74.67;94500.31;4932118;29;20035;-84
2022/06/10 06:44:36;;;;;;;14.90;10.57;;;;;;;18.96;74.90;94364.47;4935608;29;20031;-84
2022/06/10 06:47:02;;;;;;;12.43;10.35;;;;;;;19.75;75.02;94496.28;4914807;29;20499;-83
2022/06/10 06:49:28;;;;;;;11.25;10.10;;;;;;;19.99;74.43;94523.78;4922533;29;20019;-84
2022/06/10 06:51:54;;;;;;;12.60;10.27;;;;;;;19.42;74.90;94423.97;4916424;29;20055;-84
2022/06/10 06:54:20;;;;;;;11.63;9.95;;;;;;;19.31;74.08;94401.41;4921425;29;20770;-84
2022/06/10 06:56:47;;;;;;;14.38;9.90;;;;;;;20.23;74.21;94565.09;4911458;29;20039;-83
2022/06/10 06:59:12;;;;;;;11.25;9.90;;;;;;;19.67;75.28;94481.88;4937490;29;21508;-84
2022/06/10 07:01:40;;;;;;;13.48;10.70;;;;;;;19.83;75.36;94477.28;4931347;29;20043;-84
2022/06/10 07:04:06;;;;;;;16.83;11.32;;;;;;;20.33;74.58;94561.88;4920280;29;20039;-84
2022/06/10 07:06:33;;;;;;;18.52;10.90;;;;;;;20.43;74.54;94566.75;4929871;29;20038;-84
2022/06/10 07:08:59;;;;;;;14.10;11.05;;;;;;;19.97;74.77;94490.28;4937651;29;20106;-83
2022/06/10 07:11:24;;;;;;;15.15;10.75;;;;;;;19.14;74.39;94346.13;4912645;29;20580;-84
2022/06/10 07:13:50;;;;;;;21.20;11.63;;;;;;;17.27;73.62;94040.34;4934607;29;20043;-83
2022/06/10 07:16:16;;;;;;;23.25;11.52;;;;;;;19.12;73.67;94383.28;4916832;29;20043;-83
2022/06/10 07:18:42;;;;;;;20.60;11.88;;;;;;;20.61;73.15;94572.53;4932294;29;20061;-82
2022/06/10 07:21:08;;;;;;;17.35;12.68;;;;;;;17.30;73.94;94074.50;4917087;29;20046;-83
2022/06/10 07:23:35;;;;;;;15.20;11.45;;;;;;;20.65;73.77;94541.06;4918293;29;20381;-83
2022/06/10 07:26:03;;;;;;;19.63;13.35;;;;;;;18.05;73.45;94170.34;4918258;29;20523;-82
2022/06/10 07:28:30;;;;;;;12.10;10.88;;;;;;;17.30;73.82;94038.91;4934075;29;20039;-83
2022/06/10 07:30:55;;;;;;;16.00;10.50;;;;;;;18.95;73.12;94295.75;4932002;29;20084;-82
2022/06/10 07:33:21;;;;;;;11.02;9.88;;;;;;;16.92;71.61;94015.28;4917154;29;20442;-83
2022/06/10 07:35:47;;;;;;;22.10;11.77;;;;;;;17.78;72.34;94118.28;4918860;29;20036;-83
2022/06/10 07:38:12;;;;;;;16.65;11.15;;;;;;;18.84;72.50;94281.28;4915063;29;20046;-83
2022/06/10 07:43:32;;;;;;;16.58;11.90;;;;;;;20.08;73.72;94479.75;4929495;29;20109;-83
2022/06/10 07:46:12;;;;;;;20.95;12.80;;;;;;;18.77;72.60;94252.31;4930541;29;20051;-83
2022/06/10 07:48:38;;;;;;;17.85;12.65;;;;;;;20.96;72.72;94559.06;4906813;29;20138;-84
2022/06/10 07:51:07;;;;;;;16.42;12.30;;;;;;;19.87;72.18;94410.06;4929534;29;20039;-83
2022/06/10 07:53:34;;;;;;;18.83;12.45;;;;;;;19.03;72.87;94281.34;4916141;29;20067;-83
2022/06/10 07:56:00;;;;;;;23.27;12.35;;;;;;;19.48;72.08;94304.28;4925847;29;20066;-83
2022/06/10 07:58:28;;;;;;;16.60;11.05;;;;;;;19.77;72.31;94359.50;4926839;29;20051;-83
2022/06/10 08:00:54;;;;;;;14.52;10.48;;;;;;;21.02;71.00;94569.19;4907559;29;22124;-84
2022/06/10 08:03:20;;;;;;;16.95;10.88;;;;;;;20.26;70.12;94367.84;4927424;29;20043;-83
2022/06/10 08:05:46;;;;;;;18.23;11.18;;;;;;;20.33;69.95;94397.63;4915593;29;20063;-83
2022/06/10 08:08:22;;;;;;;15.25;10.70;;;;;;;20.10;69.96;94322.16;4911532;29;20030;-83
2022/06/10 08:10:47;;;;;;;12.63;10.55;;;;;;;20.70;70.31;94406.84;4932517;29;20880;-83
2022/06/10 08:13:16;;;;;;;16.05;10.60;;;;;;;19.11;70.66;94186.34;4929070;29;20039;-83
2022/06/10 08:15:44;;;;;;;13.65;10.45;;;;;;;18.10;68.85;94042.06;4915988;29;20042;-84
2022/06/10 08:18:11;;;;;;;20.65;10.45;;;;;;;20.27;68.65;94334.41;4912577;29;20160;-83
2022/06/10 08:23:28;;;;;;;16.80;9.88;;;;;;;20.14;67.84;94316.84;4929205;29;20050;-82
2022/06/10 08:25:56;;;;;;;17.48;8.82;;;;;;;19.81;67.68;94231.22;4914196;29;20333;-83
2022/06/10 08:28:23;;;;;;;13.98;8.73;;;;;;;18.66;68.26;94098.22;4930524;29;20138;-84
2022/06/10 08:30:48;;;;;;;10.60;8.57;;;;;;;18.30;67.53;94001.91;4913224;29;20052;-84
2022/06/10 08:33:14;;;;;;;12.55;8.02;;;;;;;21.19;67.03;94406.25;4924208;29;20035;-84
2022/06/10 08:35:40;;;;;;;10.30;6.55;;;;;;;18.89;63.82;94083.00;4925038;29;20059;-84
2022/06/10 08:38:09;;;;;;;8.98;7.15;;;;;;;20.95;64.39;94366.91;4915249;29;20564;-85
2022/06/10 08:40:43;;;;;;;12.55;7.35;;;;;;;21.82;64.64;94502.88;4913767;29;20058;-85
2022/06/10 08:43:41;;;;;;;9.93;7.20;;;;;;;22.53;64.10;94603.97;4927172;29;20039;-84
2022/06/10 08:46:45;;;;;;;10.77;7.43;;;;;;;20.30;63.10;94275.25;4923985;29;20601;-84
2022/06/10 08:49:19;;;;;;;12.18;7.07;;;;;;;22.61;63.65;94590.22;4900276;29;20086;-84
2022/06/10 08:51:57;;;;;;;16.73;7.95;;;;;;;22.60;63.33;94604.09;4927555;28;20540;-83
2022/06/10 08:54:34;;;;;;;14.00;7.93;;;;;;;20.90;62.71;94359.13;4908294;29;20038;-84
2022/06/10 08:57:07;;;;;;;12.55;7.78;;;;;;;22.73;63.76;94599.28;4913547;29;20028;-84
2022/06/10 08:59:44;;;;;;;10.38;6.53;;;;;;;20.70;61.43;94285.63;4916400;29;20055;-84
2022/06/10 09:02:27;;;;;;;9.45;6.20;;;;;;;22.91;61.87;94613.84;4929135;29;20060;-84
2022/06/10 09:05:11;;;;;;;12.25;6.40;;;;;;;19.86;60.48;94164.44;4908750;29;20031;-84
2022/06/10 09:07:59;;;;;;;10.30;7.15;;;;;;;22.81;61.66;94604.41;4909840;29;20040;-84
2022/06/10 09:10:33;;;;;;;8.85;7.20;;;;;;;22.57;62.22;94612.94;4931731;29;20046;-84
2022/06/10 09:13:21;;;;;;;8.73;6.68;;;;;;;22.74;62.36;94603.53;4911377;29;20035;-84
2022/06/10 09:15:59;;;;;;;18.55;7.75;;;;;;;21.77;60.80;94425.72;4911322;29;20578;-84
2022/06/10 09:18:40;;;;;;;10.55;7.45;;;;;;;20.80;61.28;94271.56;4925387;29;20506;-84
2022/06/10 09:21:52;;;;;;;12.95;7.07;;;;;;;20.89;59.88;94319.06;4922399;29;20036;-84
2022/06/10 09:24:58;;;;;;;11.63;8.10;;;;;;;22.56;59.47;94552.69;4931991;29;20039;-84
2022/06/10 09:27:55;;;;;;;18.30;8.65;;;;;;;22.51;59.97;94557.63;4933998;29;20038;-84
2022/06/10 09:30:30;;;;;;;22.88;8.65;;;;;;;22.37;59.23;94523.06;4904588;29;20051;-85
2022/06/10 09:33:06;;;;;;;17.77;9.32;;;;;;;22.67;60.58;94598.78;4923708;29;20036;-84
2022/06/10 09:35:53;;;;;;;11.68;7.00;;;;;;;22.07;59.47;94601.31;4905966;29;20035;-84
2022/06/10 09:38:25;;;;;;;19.60;8.88;;;;;;;22.27;60.63;94604.75;4909533;29;20109;-84
2022/06/10 09:40:56;;;;;;;;;;;;;;;22.20;64.45;94604.63;4926976;29;20093;-85
2022/06/10 09:43:42;;;;;;;37.83;13.80;;;;;;;21.91;68.55;94611.41;4916272;29;19930;-85
2022/06/10 09:46:26;;;;;;;54.47;11.43;;;;;;;21.49;71.15;94614.88;4931130;29;20099;-84
2022/06/10 09:48:58;;;;;;;21.92;10.48;;;;;;;20.97;72.80;94615.31;4935666;29;20470;-84
2022/06/10 09:51:32;;;;;;;20.58;10.45;;;;;;;20.66;74.68;94613.47;4923086;29;20515;-83
2022/06/10 09:54:06;;;;;;;14.90;10.20;;;;;;;20.68;74.65;94621.97;4924465;29;20130;-83
2022/06/10 09:56:34;;;;;;;19.92;10.50;;;;;;;20.27;75.26;94625.19;4930886;29;20411;-83
2022/06/10 10:02:41;;;;;;;14.68;11.38;;;;;;;19.77;78.15;94639.28;5131762;27;20134;-81
2022/06/10 10:05:29;;;;;;;19.23;11.82;;;;;;;17.65;79.12;94428.59;4997355;28;20038;-82
2022/06/10 10:08:06;;;;;;;16.40;12.40;;;;;;;19.05;79.63;94639.19;5088925;28;20414;-83
2022/06/10 10:10:46;;;;;;;17.95;12.95;;;;;;;18.77;81.40;94598.81;5109569;28;20051;-82
2022/06/10 10:13:12;;;;;;;15.10;11.98;;;;;;;18.43;81.11;94628.81;5100724;27;20114;-84
2022/06/10 10:15:58;;;;;;;22.42;14.75;;;;;;;18.73;83.05;94648.19;5120882;27;20127;-83
2022/06/10 10:18:50;;;;;;;21.30;14.10;;;;;;;18.68;81.52;94656.50;5104546;27;20031;-84
2022/06/10 10:21:55;;;;;;;15.90;12.93;;;;;;;18.71;81.77;94645.84;5116051;27;20031;-84
2022/06/10 10:24:37;;;;;;;19.08;11.52;;;;;;;17.64;81.81;94494.06;5025769;28;20025;-83
2022/06/10 10:27:31;;;;;;;16.73;12.02;;;;;;;17.34;81.23;94401.53;5018315;28;20412;-82
2022/06/10 10:30:36;;;;;;;13.07;10.02;;;;;;;17.68;79.88;94472.75;5097673;27;20112;-83
2022/06/10 10:33:07;;;;;;;16.52;9.00;;;;;;;16.58;78.71;94327.06;5117840;27;20583;-82
2022/06/10 10:35:48;;;;;;;19.15;10.93;;;;;;;14.74;79.19;94013.25;5096878;27;20042;-80
2022/06/10 10:38:33;;;;;;;20.23;10.77;;;;;;;18.70;81.59;94662.28;5099128;27;20039;-81
2022/06/10 10:40:58;;;;;;;18.23;10.52;;;;;;;18.82;82.29;94662.28;5097164;27;20378;-81
2022/06/10 10:43:31;;;;;;;21.63;13.43;;;;;;;18.87;83.63;94665.53;5092507;28;20034;-81
2022/06/10 10:46:07;;;;;;;20.42;15.02;;;;;;;18.24;83.56;94545.38;5112742;27;20023;-81
2022/06/10 10:48:36;;;;;;;14.13;9.93;;;;;;;18.80;81.97;94637.66;5097683;27;20481;-81
2022/06/10 10:51:16;;;;;;;17.75;9.55;;;;;;;18.77;81.60;94654.44;5113583;27;20034;-81
2022/06/10 10:53:46;;;;;;;10.90;7.60;;;;;;;18.64;79.93;94656.38;5109905;27;20058;-83
2022/06/10 10:56:29;;;;;;;11.18;7.20;;;;;;;18.15;80.55;94587.66;5108094;27;20508;-81
2022/06/10 10:58:57;;;;;;;11.23;8.50;;;;;;;18.39;81.32;94599.16;5093580;28;20043;-81
2022/06/10 11:01:43;;;;;;;12.02;8.65;;;;;;;18.26;81.05;94562.72;5107292;27;20044;-81
2022/06/10 11:04:18;;;;;;;19.42;11.02;;;;;;;18.82;82.73;94638.91;5094225;28;20032;-81
2022/06/10 11:06:43;;;;;;;16.85;9.27;;;;;;;17.79;81.39;94483.78;5094152;28;20085;-81
2022/06/10 11:09:17;;;;;;;12.88;10.27;;;;;;;18.59;81.19;94620.91;5099066;27;20028;-82
2022/06/10 11:11:44;;;;;;;15.93;10.13;;;;;;;18.50;82.55;94611.03;5097067;28;20055;-83
2022/06/10 11:14:33;;;;;;;15.07;9.95;;;;;;;18.97;82.94;94650.06;5084195;28;20706;-82
2022/06/10 11:17:11;;;;;;;13.55;9.50;;;;;;;18.80;81.56;94621.53;5082662;28;20036;-84
2022/06/10 11:19:37;;;;;;;11.80;9.70;;;;;;;19.25;81.98;94646.31;5078648;28;20040;-83
2022/06/10 11:26:24;;;;;;;;;;;;;;;;;;;;;
2022/06/10 11:29:45;;;;;;;33.30;14.18;;;;;;;19.48;79.90;94633.16;5085676;28;20520;-83
2022/06/10 11:32:37;;;;;;;15.75;11.73;;;;;;;19.64;81.94;94617.06;5075740;28;20054;-83
2022/06/10 11:35:24;;;;;;;21.58;13.52;;;;;;;20.19;84.60;94629.63;5078776;28;20137;-84
2022/06/10 11:37:54;;;;;;;16.67;12.80;;;;;;;19.16;85.00;94430.63;5045930;28;20047;-82
2022/06/10 11:40:27;;;;;;;19.95;11.93;;;;;;;19.24;81.70;94410.09;5042648;28;20033;-82
2022/06/10 11:42:59;;;;;;;18.58;11.57;;;;;;;20.87;80.20;94637.41;5052043;28;20036;-81
2022/06/10 11:45:32;;;;;;;21.25;13.20;;;;;;;21.30;84.66;94631.03;5039067;28;20056;-83
2022/06/10 11:48:12;;;;;;;535.17;45.35;;;;;;;21.20;88.76;94542.63;5052543;28;20033;-84
2022/06/10 11:51:06;;;;;;;18.13;11.90;;;;;;;21.88;80.65;94631.03;5036548;28;20033;-85
2022/06/10 11:53:39;;;;;;;9.43;7.63;;;;;;;21.97;78.66;94628.13;5045568;28;20032;-84
2022/06/10 12:02:31;;;;;;;7.85;6.28;;;;;;;22.11;76.82;94620.28;5053019;28;20146;-85
2022/06/10 12:05:16;;;;;;;7.72;6.93;;;;;;;22.59;74.89;94586.31;5048013;28;20037;-87
2022/06/10 12:07:57;;;;;;;11.55;8.60;;;;;;;22.56;77.39;94519.50;5047597;28;20147;-87
2022/06/10 12:10:26;;;;;;;9.20;7.65;;;;;;;22.74;73.56;94487.31;5044404;28;20025;-87
2022/06/10 12:12:55;;;;;;;8.73;7.45;;;;;;;22.01;72.40;94348.19;5045137;28;20043;-86
2022/06/10 12:15:30;;;;;;;8.90;6.90;;;;;;;21.03;68.71;94179.13;5045792;28;20082;-87
2022/06/10 12:18:00;;;;;;;8.55;7.25;;;;;;;23.43;67.29;94543.41;5067629;28;20033;-88
2022/06/10 12:20:44;;;;;;;8.55;7.38;;;;;;;24.16;69.50;94604.13;5042792;28;20123;-89